Time;durP1;ratioP1;P1;durP2;ratioP2;P2;SDS_P1;SDS_P2;PMS_P1;PMS_P2;Temp;Humidity;BMP_temperature;BMP_pressure;BME280_temperature;BME280_humidity;BME280_pressure;Samples;Min_cycle;Max_cycle;Signal;HPM_P1;HPM_P2
2022/04/12 00:01:10;;;;;;;;;;;;;;;6.08;47.38;100315.25;4398463;32;34541;-83
2022/04/12 00:03:39;;;;;;;;;;;;;;;6.01;47.78;100316.59;4398132;32;34308;-84
2022/04/12 00:06:08;;;;;;;;;;;;;;;6.13;47.40;100319.28;4386154;32;33569;-83
2022/04/12 00:08:36;;;;;;;;;;;;;;;6.04;47.51;100308.47;4386200;32;33557;-83
2022/04/12 00:11:05;;;;;;;;;;;;;;;5.95;47.96;100314.41;4398722;32;34147;-85
2022/04/12 00:13:37;;;;;;;;;;;;;;;5.90;48.51;100316.50;4398231;32;35370;-85
2022/04/12 00:16:40;;;;;;;;;;;;;;;5.97;48.39;100315.13;4401570;32;34638;-83
2022/04/12 00:19:10;;;;;;;;;;;;;;;6.05;48.12;100305.72;4400060;32;33732;-85
2022/04/12 00:21:40;;;;;;;;;;;;;;;6.18;48.05;100311.91;4400009;32;34015;-87
2022/04/12 00:24:09;;;;;;;;;;;;;;;6.22;47.88;100297.50;4373646;32;33956;-83
2022/04/12 00:26:41;;;;;;;;;;;;;;;6.20;47.90;100301.19;4373845;32;35203;-86
2022/04/12 00:29:12;;;;;;;;;;;;;;;6.24;47.29;100294.78;4398651;32;33540;-86
2022/04/12 00:31:58;;;;;;;;;;;;;;;6.26;47.39;100295.50;4399307;32;34015;-88
2022/04/12 00:34:26;;;;;;;;;;;;;;;6.13;47.66;100294.63;4385974;32;34919;-85
2022/04/12 00:36:55;;;;;;;;;;;;;;;5.86;48.41;100292.06;4398356;32;34650;-83
2022/04/12 00:39:44;;;;;;;;;;;;;;;5.59;49.31;100293.03;4399079;32;33364;-86
2022/04/12 00:42:31;;;;;;;;;;;;;;;5.61;49.19;100288.50;4385775;32;32964;-83
2022/04/12 00:45:01;;;;;;;;;;;;;;;5.86;48.03;100291.25;4373013;32;34800;-83
2022/04/12 00:47:49;;;;;;;;;;;;;;;5.98;47.57;100287.78;4397954;32;34115;-88
2022/04/12 00:50:57;;;;;;;;;;;;;;;6.12;47.43;100287.66;4390617;32;33388;-84
2022/04/12 00:53:28;;;;;;;;;;;;;;;5.87;47.67;100285.84;4373325;32;33329;-86
2022/04/12 00:55:58;;;;;;;;;;;;;;;6.07;47.40;100287.16;4398333;32;34799;-84
2022/04/12 00:58:26;;;;;;;;;;;;;;;6.11;47.17;100285.97;4398039;32;34728;-86
2022/04/12 01:00:55;;;;;;;;;;;;;;;6.17;47.23;100288.22;4398017;32;33970;-84
2022/04/12 01:03:27;;;;;;;;;;;;;;;6.13;47.71;100286.72;4399712;32;33910;-83
2022/04/12 01:05:55;;;;;;;;;;;;;;;6.20;47.63;100291.50;4372600;32;34131;-84
2022/04/12 01:08:23;;;;;;;;;;;;;;;6.17;47.51;100289.03;4386155;32;33913;-85
2022/04/12 01:10:57;;;;;;;;;;;;;;;6.07;47.50;100282.69;4398229;32;33243;-84
2022/04/12 01:13:24;;;;;;;;;;;;;;;5.83;47.74;100291.44;4398248;32;34813;-86
2022/04/12 01:16:01;;;;;;;;;;;;;;;6.03;47.49;100281.22;4398596;32;34899;-85
2022/04/12 01:18:29;;;;;;;;;;;;;;;5.98;47.66;100288.59;4398585;32;34631;-83
2022/04/12 01:21:01;;;;;;;;;;;;;;;5.93;47.69;100282.81;4398212;32;33889;-84
2022/04/12 01:23:50;;;;;;;;;;;;;;;5.98;47.56;100288.59;4376485;32;33127;-84
2022/04/12 01:26:17;;;;;;;;;;;;;;;5.70;47.99;100285.25;4388661;32;34224;-85
2022/04/12 01:29:20;;;;;;;;;;;;;;;5.92;47.59;100278.47;4401207;32;34599;-84
2022/04/12 01:31:48;;;;;;;;;;;;;;;5.82;48.06;100277.41;4400231;32;33192;-86
2022/04/12 01:34:36;;;;;;;;;;;;;;;5.50;48.84;100277.81;4375374;32;32832;-84
2022/04/12 01:37:07;;;;;;;;;;;;;;;5.60;48.23;100277.09;4398057;32;35188;-84
2022/04/12 01:40:03;;;;;;;;;;;;;;;5.48;48.34;100283.19;4375897;32;34324;-83
2022/04/12 01:42:52;;;;;;;;;;;;;;;5.55;48.35;100278.34;4398305;32;33406;-83
2022/04/12 01:45:24;;;;;;;;;;;;;;;5.38;48.94;100281.25;4398143;32;34249;-84
2022/04/12 01:47:53;;;;;;;;;;;;;;;5.58;48.71;100279.00;4372768;32;34717;-85
2022/04/12 01:50:21;;;;;;;;;;;;;;;5.74;48.18;100279.69;4385616;32;33126;-84
2022/04/12 01:53:12;;;;;;;;;;;;;;;5.79;47.99;100279.41;4398174;32;33250;-86
2022/04/12 01:55:40;;;;;;;;;;;;;;;5.77;48.03;100279.47;4386109;32;34110;-83
2022/04/12 01:58:15;;;;;;;;;;;;;;;5.82;48.34;100287.09;4397907;32;36475;-85
2022/04/12 02:00:43;;;;;;;;;;;;;;;5.82;48.64;100282.69;4397076;32;34352;-84
2022/04/12 02:03:11;;;;;;;;;;;;;;;5.84;48.54;100286.06;4385844;32;33459;-84
2022/04/12 02:05:39;;;;;;;;;;;;;;;5.83;48.97;100289.66;4398307;32;34130;-85
2022/04/12 02:08:20;;;;;;;;;;;;;;;5.83;49.18;100284.37;4398220;32;35059;-85
2022/04/12 02:10:59;;;;;;;;;;;;;;;5.83;49.31;100286.16;4375787;32;34734;-84
2022/04/12 02:13:29;;;;;;;;;;;;;;;5.85;49.01;100282.47;4399406;32;33562;-84
2022/04/12 02:16:12;;;;;;;;;;;;;;;5.79;48.97;100290.78;4372510;32;34059;-83
2022/04/12 02:18:41;;;;;;;;;;;;;;;5.76;48.82;100279.56;4397604;32;33608;-83
2022/04/12 02:21:09;;;;;;;;;;;;;;;5.44;48.94;100283.50;4397472;32;34717;-84
2022/04/12 02:23:43;;;;;;;;;;;;;;;5.53;48.50;100275.81;4399496;32;34596;-83
2022/04/12 02:26:12;;;;;;;;;;;;;;;5.54;48.66;100277.53;4385063;32;33161;-87
2022/04/12 02:29:00;;;;;;;;;;;;;;;5.49;49.01;100282.22;4398073;32;34890;-88
2022/04/12 02:31:47;;;;;;;;;;;;;;;5.48;48.84;100277.91;4399072;32;35379;-84
2022/04/12 02:34:35;;;;;;;;;;;;;;;5.45;48.94;100271.97;4397699;32;33578;-85
2022/04/12 02:37:06;;;;;;;;;;;;;;;5.42;48.91;100276.62;4384930;32;34852;-84
2022/04/12 02:39:42;;;;;;;;;;;;;;;5.36;49.21;100277.03;4398925;32;36808;-84
2022/04/12 02:42:12;;;;;;;;;;;;;;;5.28;49.48;100276.69;4385694;32;34383;-83
2022/04/12 02:45:00;;;;;;;;;;;;;;;5.29;49.35;100278.38;4397351;32;32284;-85
2022/04/12 02:47:30;;;;;;;;;;;;;;;5.38;49.30;100283.88;4397534;32;32826;-84
2022/04/12 02:50:03;;;;;;;;;;;;;;;5.20;49.67;100286.88;4397537;32;35170;-85
2022/04/12 02:52:30;;;;;;;;;;;;;;;5.20;49.82;100281.59;4385084;32;34224;-84
2022/04/12 02:54:58;;;;;;;;;;;;;;;5.31;49.55;100287.87;4372693;32;32352;-84
2022/04/12 02:57:26;;;;;;;;;;;;;;;5.32;49.36;100286.06;4385979;32;34184;-87
2022/04/12 02:59:58;;;;;;;;;;;;;;;5.08;49.95;100288.50;4399201;32;35619;-83
2022/04/12 03:02:35;;;;;;;;;;;;;;;5.11;49.84;100298.00;4397065;32;34557;-85
2022/04/12 03:05:12;;;;;;;;;;;;;;;5.13;49.78;100299.62;4385834;32;32814;-84
2022/04/12 03:07:58;;;;;;;;;;;;;;;5.06;49.82;100294.81;4397124;32;34091;-84
2022/04/12 03:10:25;;;;;;;;;;;;;;;4.91;49.93;100301.91;4397262;32;35446;-84
2022/04/12 03:13:14;;;;;;;;;;;;;;;5.15;49.36;100296.88;4387190;32;33848;-84
2022/04/12 03:16:01;;;;;;;;;;;;;;;5.21;49.33;100297.34;4386963;32;34281;-88
2022/04/12 03:18:33;;;;;;;;;;;;;;;5.21;49.20;100296.47;4398751;32;34536;-84
2022/04/12 03:21:00;;;;;;;;;;;;;;;5.14;49.18;100297.81;4387444;32;34840;-84
2022/04/12 03:23:57;;;;;;;;;;;;;;;5.15;49.50;100297.72;4398975;32;34757;-84
2022/04/12 03:26:44;;;;;;;;;;;;;;;5.17;50.09;100297.63;4384168;32;33507;-84
2022/04/12 03:29:14;;;;;;;;;;;;;;;5.20;50.13;100298.25;4397228;32;33124;-84
2022/04/12 03:31:49;;;;;;;;;;;;;;;5.22;49.99;100296.38;4397410;32;35035;-83
2022/04/12 03:34:39;;;;;;;;;;;;;;;5.22;49.97;100299.03;4400509;32;35700;-88
2022/04/12 03:37:22;;;;;;;;;;;;;;;5.17;50.11;100301.09;4400594;32;33359;-84
2022/04/12 03:39:55;;;;;;;;;;;;;;;5.14;50.02;100300.44;4398944;32;35163;-87
2022/04/12 03:42:42;;;;;;;;;;;;;;;5.14;49.88;100306.59;4398963;32;34577;-87
2022/04/12 03:45:11;;;;;;;;;;;;;;;5.05;49.75;100307.16;4374077;32;34468;-84
2022/04/12 03:47:48;;;;;;;;;;;;;;;5.04;49.71;100307.25;4398605;32;33306;-84
2022/04/12 03:50:22;;;;;;;;;;;;;;;5.05;49.48;100314.22;4396846;32;34261;-85
2022/04/12 03:53:09;;;;;;;;;;;;;;;5.01;49.77;100312.72;4386685;32;36102;-87
2022/04/12 03:55:46;;;;;;;;;;;;;;;4.96;49.79;100307.75;4396650;32;33347;-86
2022/04/12 03:58:29;;;;;;;;;;;;;;;4.89;50.23;100311.72;4397799;32;33328;-85
2022/04/12 04:01:17;;;;;;;;;;;;;;;4.83;50.41;100308.63;4384309;32;33400;-84
2022/04/12 04:03:47;;;;;;;;;;;;;;;4.87;50.48;100313.59;4396202;32;33693;-84
2022/04/12 04:06:31;;;;;;;;;;;;;;;4.89;50.33;100316.16;4383675;32;35482;-85
2022/04/12 04:09:34;;;;;;;;;;;;;;;4.84;50.68;100312.94;4397564;32;33281;-88
2022/04/12 04:12:22;;;;;;;;;;;;;;;4.95;50.57;100321.00;4398180;32;34486;-84
2022/04/12 04:15:14;;;;;;;;;;;;;;;4.86;51.05;100313.69;4398137;32;34942;-87
2022/04/12 04:17:42;;;;;;;;;;;;;;;4.93;50.67;100320.28;4396417;32;34409;-88
2022/04/12 04:20:45;;;;;;;;;;;;;;;5.00;50.42;100314.50;4375221;32;32716;-84
2022/04/12 04:23:33;;;;;;;;;;;;;;;4.98;50.41;100311.13;4397492;32;34901;-83
2022/04/12 04:26:05;;;;;;;;;;;;;;;5.02;50.53;100315.28;4399977;32;33907;-83
2022/04/12 04:28:56;;;;;;;;;;;;;;;4.98;50.42;100318.22;4398464;32;35095;-87
2022/04/12 04:31:25;;;;;;;;;;;;;;;4.96;50.42;100317.44;4398500;32;33777;-83
2022/04/12 04:34:00;;;;;;;;;;;;;;;5.02;50.02;100315.28;4398422;32;33523;-85
2022/04/12 04:36:48;;;;;;;;;;;;;;;4.89;50.09;100319.63;4395799;32;34038;-84
2022/04/12 04:39:17;;;;;;;;;;;;;;;4.72;50.94;100319.81;4385320;32;33910;-83
2022/04/12 04:41:49;;;;;;;;;;;;;;;4.94;50.35;100321.97;4385667;32;32799;-84
2022/04/12 04:44:17;;;;;;;;;;;;;;;4.76;50.90;100320.47;4373219;32;33078;-84
2022/04/12 04:46:52;;;;;;;;;;;;;;;5.00;50.70;100321.59;4399103;32;34692;-84
2022/04/12 04:49:24;;;;;;;;;;;;;;;5.05;50.82;100322.13;4398292;32;33409;-86
2022/04/12 04:52:11;;;;;;;;;;;;;;;5.11;50.71;100329.66;4385827;32;33180;-85
2022/04/12 04:54:43;;;;;;;;;;;;;;;5.14;50.94;100338.22;4373607;32;33401;-83
2022/04/12 04:57:30;;;;;;;;;;;;;;;5.16;50.98;100338.09;4375233;32;34637;-84
2022/04/12 05:00:02;;;;;;;;;;;;;;;5.23;50.79;100342.91;4397983;32;33836;-86
2022/04/12 05:02:46;;;;;;;;;;;;;;;5.11;51.13;100342.84;4398212;32;33850;-84
2022/04/12 05:05:36;;;;;;;;;;;;;;;5.23;50.51;100342.91;4398635;32;34790;-83
2022/04/12 05:08:05;;;;;;;;;;;;;;;5.25;50.62;100348.94;4385202;32;34554;-84
2022/04/12 05:10:33;;;;;;;;;;;;;;;5.33;50.77;100356.34;4390848;32;33668;-85
2022/04/12 05:13:05;;;;;;;;;;;;;;;5.31;50.98;100359.09;4399986;32;34419;-86
2022/04/12 05:15:36;;;;;;;;;;;;;;;5.38;51.01;100359.56;4385872;32;33006;-89
2022/04/12 05:18:23;;;;;;;;;;;;;;;5.31;51.20;100353.84;4391698;32;35799;-87
2022/04/12 05:20:55;;;;;;;;;;;;;;;5.43;51.08;100351.22;4386273;32;34872;-87
2022/04/12 05:23:24;;;;;;;;;;;;;;;5.72;50.48;100355.50;4398507;32;33892;-87
2022/04/12 05:26:15;;;;;;;;;;;;;;;5.92;49.91;100356.84;4387944;32;34110;-86
2022/04/12 05:29:04;;;;;;;;;;;;;;;6.03;50.23;100357.81;4399611;32;34638;-86
2022/04/12 05:31:32;;;;;;;;;;;;;;;5.96;50.02;100363.63;4398221;32;34555;-87
2022/04/12 05:34:01;;;;;;;;;;;;;;;6.19;49.62;100366.41;4398314;32;34230;-86
2022/04/12 05:36:32;;;;;;;;;;;;;;;6.38;49.38;100358.94;4398361;32;34349;-90
2022/04/12 05:39:02;;;;;;;;;;;;;;;6.47;48.83;100363.59;4397873;32;36334;-89
2022/04/12 05:41:29;;;;;;;;;;;;;;;6.71;48.37;100364.53;4373443;32;33415;-86
2022/04/12 05:43:59;;;;;;;;;;;;;;;6.80;47.99;100371.81;4398231;32;34487;-86
2022/04/12 05:46:26;;;;;;;;;;;;;;;6.90;47.84;100364.94;4398738;32;33184;-86
2022/04/12 05:48:56;;;;;;;;;;;;;;;7.01;47.47;100364.19;4401442;32;34825;-87
2022/04/12 05:51:47;;;;;;;;;;;;;;;7.19;46.84;100363.72;4403131;32;33726;-86
2022/04/12 05:54:16;;;;;;;;;;;;;;;7.37;46.88;100365.06;4399843;32;33311;-87
2022/04/12 05:56:45;;;;;;;;;;;;;;;7.46;46.67;100369.69;4375063;32;32284;-86
2022/04/12 05:59:32;;;;;;;;;;;;;;;7.61;46.64;100365.06;4399957;32;35305;-89
2022/04/12 06:02:08;;;;;;;;;;;;;;;7.33;47.52;100376.84;4399799;32;34820;-88
2022/04/12 06:04:39;;;;;;;;;;;;;;;7.87;45.78;100370.16;4397955;32;32079;-86
2022/04/12 06:07:42;;;;;;;;;;;;;;;7.81;47.27;100373.25;4385511;32;33096;-88
2022/04/12 06:10:13;;;;;;;;;;;;;;;7.91;46.76;100370.78;4384793;32;33830;-87
2022/04/12 06:12:40;;;;;;;;;;;;;;;8.10;47.46;100369.28;4385889;32;34746;-86
2022/04/12 06:15:12;;;;;;;;;;;;;;;8.12;46.70;100369.19;4385978;32;32352;-88
2022/04/12 06:18:03;;;;;;;;;;;;;;;8.32;46.45;100376.50;4388995;32;34723;-88
2022/04/12 06:20:40;;;;;;;;;;;;;;;8.37;46.24;100379.69;4399487;32;35372;-90
2022/04/12 06:23:08;;;;;;;;;;;;;;;8.68;44.97;100383.34;4373388;32;35538;-91
2022/04/12 06:25:39;;;;;;;;;;;;;;;8.67;45.92;100384.31;4398509;32;32928;-90
2022/04/12 06:28:08;;;;;;;;;;;;;;;8.98;44.72;100380.97;4372991;32;33086;-87
2022/04/12 06:30:35;;;;;;;;;;;;;;;8.93;45.29;100384.94;4384611;32;35295;-89
2022/04/12 06:33:04;;;;;;;;;;;;;;;9.08;44.69;100389.06;4399110;32;33923;-88
2022/04/12 06:35:31;;;;;;;;;;;;;;;9.17;44.30;100388.34;4397968;32;32577;-88
2022/04/12 06:38:01;;;;;;;;;;;;;;;9.26;44.51;100384.94;4399510;32;33487;-87
2022/04/12 06:40:30;;;;;;;;;;;;;;;9.55;43.10;100381.62;4397915;32;35272;-86
2022/04/12 06:43:00;;;;;;;;;;;;;;;9.65;42.76;100393.19;4399660;32;33978;-87
2022/04/12 06:45:29;;;;;;;;;;;;;;;9.73;41.01;100381.97;4397080;32;32405;-85
2022/04/12 06:48:17;;;;;;;;;;;;;;;9.85;42.21;100386.28;4399232;32;33484;-94
2022/04/12 06:51:04;;;;;;;;;;;;;;;10.02;39.44;100388.41;4396029;32;35096;-87
2022/04/12 06:53:34;;;;;;;;;;;;;;;10.22;39.61;100384.97;4384771;32;33261;-86
2022/04/12 06:56:06;;;;;;;;;;;;;;;10.29;39.09;100386.97;4384776;32;32922;-86
2022/04/12 06:58:36;;;;;;;;;;;;;;;10.68;38.79;100375.63;4385354;32;33999;-84
2022/04/12 07:01:04;;;;;;;;;;;;;;;10.82;37.80;100379.75;4372327;32;34238;-87
2022/04/12 07:03:34;;;;;;;;;;;;;;;10.95;36.14;100375.91;4397149;32;34735;-91
2022/04/12 07:06:02;;;;;;;;;;;;;;;11.06;37.93;100377.66;4398713;32;33622;-88
2022/04/12 07:08:32;;;;;;;;;;;;;;;11.08;36.98;100376.56;4397287;32;33406;-90
2022/04/12 07:11:00;;;;;;;;;;;;;;;11.37;36.70;100380.19;4398970;32;35794;-90
2022/04/12 07:13:28;;;;;;;;;;;;;;;11.65;36.45;100376.78;4383013;32;36202;-91
2022/04/12 07:16:03;;;;;;;;;;;;;;;11.82;35.80;100376.94;4396919;32;32226;-90
2022/04/12 07:18:32;;;;;;;;;;;;;;;11.74;36.39;100383.97;4383621;32;32946;-88
2022/04/12 07:20:59;;;;;;;;;;;;;;;11.91;35.15;100377.97;4370963;32;33553;-87
2022/04/12 07:23:27;;;;;;;;;;;;;;;11.75;34.89;100381.12;4397852;32;34825;-89
2022/04/12 07:25:55;;;;;;;;;;;;;;;11.72;35.64;100384.09;4396414;32;33566;-89
2022/04/12 07:28:26;;;;;;;;;;;;;;;11.70;34.18;100391.38;4397031;32;34552;-89
2022/04/12 07:31:15;;;;;;;;;;;;;;;11.60;34.88;100389.66;4398845;32;34928;-89
2022/04/12 07:33:43;;;;;;;;;;;;;;;11.60;34.77;100389.66;4399227;32;34719;-90
2022/04/12 07:36:12;;;;;;;;;;;;;;;11.83;34.55;100386.63;4396662;32;33498;-89
2022/04/12 07:38:41;;;;;;;;;;;;;;;11.91;34.84;100385.97;4398777;32;32942;-88
2022/04/12 07:41:12;;;;;;;;;;;;;;;11.66;35.63;100382.00;4385107;32;35384;-93
2022/04/12 07:43:49;;;;;;;;;;;;;;;12.00;34.91;100391.28;4384842;32;33974;-87
2022/04/12 07:46:27;;;;;;;;;;;;;;;12.11;35.18;100391.16;4382124;32;34194;-88
2022/04/12 07:48:55;;;;;;;;;;;;;;;12.35;35.37;100388.06;4395727;32;33906;-90
2022/04/12 07:51:23;;;;;;;;;;;;;;;12.26;35.99;100391.56;4396247;32;35287;-88
2022/04/12 07:53:50;;;;;;;;;;;;;;;12.75;34.62;100391.41;4398362;32;35574;-89
2022/04/12 07:56:18;;;;;;;;;;;;;;;12.52;34.20;100388.22;4396972;32;33208;-86
2022/04/12 07:58:46;;;;;;;;;;;;;;;12.71;34.15;100395.31;4384675;32;34552;-88
2022/04/12 08:01:14;;;;;;;;;;;;;;;12.77;33.27;100398.25;4398587;32;35834;-84
2022/04/12 08:03:45;;;;;;;;;;;;;;;12.93;33.41;100395.84;4397931;32;34014;-86
2022/04/12 08:06:13;;;;;;;;;;;;;;;12.78;33.00;100397.31;4399270;32;32378;-86
2022/04/12 08:08:41;;;;;;;;;;;;;;;12.78;32.23;100399.97;4387529;32;32924;-87
2022/04/12 08:11:13;;;;;;;;;;;;;;;12.70;33.20;100402.50;4387848;32;35821;-84
2022/04/12 08:13:40;;;;;;;;;;;;;;;12.99;32.88;100399.78;4401276;32;34804;-86
2022/04/12 08:16:09;;;;;;;;;;;;;;;12.90;31.67;100406.81;4386254;32;32710;-84
2022/04/12 08:18:58;;;;;;;;;;;;;;;12.88;32.26;100408.81;4398576;32;34501;-91
2022/04/12 08:21:45;;;;;;;;;;;;;;;13.30;31.08;100401.25;4398971;32;35281;-87
2022/04/12 08:24:13;;;;;;;;;;;;;;;13.36;31.68;100412.19;4385844;32;35065;-87
2022/04/12 08:27:01;;;;;;;;;;;;;;;13.32;34.29;100404.62;4400562;32;32976;-85
2022/04/12 08:29:29;;;;;;;;;;;;;;;13.85;30.72;100414.47;4398872;32;34056;-90
2022/04/12 08:31:58;;;;;;;;;;;;;;;13.86;31.42;100409.97;4394826;32;35992;-91
2022/04/12 08:34:26;;;;;;;;;;;;;;;14.04;33.30;100405.50;4400204;32;35474;-88
2022/04/12 08:36:54;;;;;;;;;;;;;;;14.15;31.11;100411.44;4385806;32;32063;-87
2022/04/12 08:39:27;;;;;;;;;;;;;;;14.35;29.95;100414.84;4399139;32;32635;-86
2022/04/12 08:41:55;;;;;;;;;;;;;;;14.10;30.94;100410.22;4398403;32;34711;-86
2022/04/12 08:44:23;;;;;;;;;;;;;;;14.48;30.51;100413.47;4385790;32;34816;-89
2022/04/12 08:46:51;;;;;;;;;;;;;;;14.40;32.80;100408.03;4386021;32;33659;-86
2022/04/12 08:49:20;;;;;;;;;;;;;;;14.42;31.02;100411.41;4385856;32;34972;-89
2022/04/12 08:51:48;;;;;;;;;;;;;;;14.56;30.08;100410.88;4398172;32;34475;-87
2022/04/12 08:54:16;;;;;;;;;;;;;;;14.93;29.73;100411.50;4385620;32;35185;-89
2022/04/12 08:56:50;;;;;;;;;;;;;;;14.67;30.20;100405.25;4386343;32;33127;-88
2022/04/12 08:59:19;;;;;;;;;;;;;;;15.02;30.51;100410.56;4384605;32;32914;-88
2022/04/12 09:01:54;;;;;;;;;;;;;;;15.19;29.75;100405.12;4399359;32;34664;-88
2022/04/12 09:04:26;;;;;;;;;;;;;;;14.95;29.79;100399.59;4398432;32;34150;-90
2022/04/12 09:06:58;;;;;;;;;;;;;;;15.50;29.74;100398.28;4399338;32;34266;-87
2022/04/12 09:09:45;;;;;;;;;;;;;;;15.36;29.19;100392.66;4374542;32;33193;-88
2022/04/12 09:12:17;;;;;;;;;;;;;;;15.26;30.44;100392.78;4386401;32;35158;-88
2022/04/12 09:14:47;;;;;;;;;;;;;;;15.43;28.97;100383.84;4392992;32;33782;-88
2022/04/12 09:17:16;;;;;;;;;;;;;;;15.82;28.66;100384.12;4400366;32;33061;-90
2022/04/12 09:20:14;;;;;;;;;;;;;;;15.58;27.57;100386.75;4385979;32;33115;-90
2022/04/12 09:22:46;;;;;;;;;;;;;;;15.28;28.46;100379.19;4396402;32;34934;-88
2022/04/12 09:25:35;;;;;;;;;;;;;;;15.30;28.11;100380.75;4394717;32;34582;-86
2022/04/12 09:28:04;;;;;;;;;;;;;;;15.33;28.16;100372.41;4397332;32;33189;-92
2022/04/12 09:30:32;;;;;;;;;;;;;;;15.03;28.20;100385.44;4384204;32;33499;-91
2022/04/12 09:33:03;;;;;;;;;;;;;;;15.38;28.40;100372.75;4398656;32;35697;-88
2022/04/12 09:35:30;;;;;;;;;;;;;;;15.68;27.38;100379.41;4399397;32;33873;-89
2022/04/12 09:38:00;;;;;;;;;;;;;;;15.48;28.35;100370.78;4397588;32;32936;-84
2022/04/12 09:40:27;;;;;;;;;;;;;;;16.09;26.60;100373.13;4397635;32;33817;-85
2022/04/12 09:42:57;;;;;;;;;;;;;;;15.52;27.90;100369.47;4384698;32;34935;-86
2022/04/12 09:45:33;;;;;;;;;;;;;;;15.33;27.79;100367.03;4373399;32;33859;-84
2022/04/12 09:48:02;;;;;;;;;;;;;;;15.20;28.48;100379.19;4384465;32;32926;-89
2022/04/12 09:50:50;;;;;;;;;;;;;;;15.41;28.10;100368.91;4399618;32;33800;-85
2022/04/12 09:53:40;;;;;;;;;;;;;;;15.67;27.05;100370.50;4386265;32;34797;-83
2022/04/12 09:56:15;;;;;;;;;;;;;;;15.84;28.41;100357.97;4384739;32;33401;-91
2022/04/12 09:58:44;;;;;;;;;;;;;;;15.71;28.74;100355.78;4385608;32;33590;-87
2022/04/12 10:01:12;;;;;;;;;;;;;;;16.30;27.25;100352.00;4384772;32;33609;-83
2022/04/12 10:03:46;;;;;;;;;;;;;;;16.31;27.43;100353.69;4384504;32;35699;-83
2022/04/12 10:06:14;;;;;;;;;;;;;;;16.36;27.20;100352.25;4396989;32;33485;-83
2022/04/12 10:08:44;;;;;;;;;;;;;;;15.65;29.04;100348.38;4384116;32;32877;-83
2022/04/12 10:11:13;;;;;;;;;;;;;;;16.34;28.02;100338.09;4383992;32;33275;-87
2022/04/12 10:13:41;;;;;;;;;;;;;;;16.40;26.49;100339.28;4396522;32;35313;-85
2022/04/12 10:16:10;;;;;;;;;;;;;;;16.94;29.46;100331.34;4384597;32;35149;-89
2022/04/12 10:18:39;;;;;;;;;;;;;;;17.40;26.83;100333.25;4398718;32;33808;-87
2022/04/12 10:21:07;;;;;;;;;;;;;;;17.28;26.38;100339.13;4397671;32;33191;-88
2022/04/12 10:23:35;;;;;;;;;;;;;;;17.41;25.72;100329.53;4398243;32;34995;-81
2022/04/12 10:26:03;;;;;;;;;;;;;;;17.18;25.77;100330.44;4398049;32;34656;-85
2022/04/12 10:28:30;;;;;;;;;;;;;;;16.85;26.75;100321.63;4397856;32;33366;-88
2022/04/12 10:31:14;;;;;;;;;;;;;;;16.83;27.61;100320.97;4385538;32;32862;-83
2022/04/12 10:34:01;;;;;;;;;;;;;;;17.19;28.79;100313.28;4385709;32;34032;-82
2022/04/12 10:36:49;;;;;;;;;;;;;;;17.36;25.73;100314.94;4399066;32;34207;-84
2022/04/12 10:39:36;;;;;;;;;;;;;;;16.97;29.47;100311.34;4374733;32;33324;-86
2022/04/12 10:42:09;;;;;;;;;;;;;;;16.11;28.42;100291.44;4373703;32;33973;-83
2022/04/12 10:44:37;;;;;;;;;;;;;;;16.49;28.79;100303.38;4385853;32;35239;-83
2022/04/12 10:47:24;;;;;;;;;;;;;;;17.14;28.00;100312.97;4385979;32;35451;-89
2022/04/12 10:49:53;;;;;;;;;;;;;;;17.27;27.89;100311.41;4399586;32;33483;-84
2022/04/12 10:52:31;;;;;;;;;;;;;;;17.71;26.80;100301.78;4385563;32;34034;-85
2022/04/12 10:54:59;;;;;;;;;;;;;;;18.08;27.66;100300.03;4397818;32;35753;-83
2022/04/12 10:57:28;;;;;;;;;;;;;;;18.43;26.42;100287.81;4397877;32;35281;-82
2022/04/12 11:00:08;;;;;;;;;;;;;;;18.58;23.52;100292.22;4397829;32;33609;-84
2022/04/12 11:02:46;;;;;;;;;;;;;;;17.94;25.78;100297.28;4398026;32;33445;-83
2022/04/12 11:05:30;;;;;;;;;;;;;;;17.65;25.62;100289.88;4385452;32;35126;-82
2022/04/12 11:07:58;;;;;;;;;;;;;;;17.92;25.62;100288.53;4398079;32;33600;-83
2022/04/12 11:10:29;;;;;;;;;;;;;;;17.53;25.84;100287.78;4397509;32;32347;-82
2022/04/12 11:13:07;;;;;;;;;;;;;;;17.31;28.34;100287.69;4385050;32;33191;-82
2022/04/12 11:15:38;;;;;;;;;;;;;;;17.37;26.40;100279.78;4397236;32;34222;-84
2022/04/12 11:18:09;;;;;;;;;;;;;;;17.60;26.87;100286.06;4397762;32;34472;-81
2022/04/12 11:20:37;;;;;;;;;;;;;;;18.19;25.50;100270.00;4399632;32;33572;-81
2022/04/12 11:23:12;;;;;;;;;;;;;;;17.86;26.10;100271.25;4384733;32;33633;-80
2022/04/12 11:25:45;;;;;;;;;;;;;;;17.89;25.17;100273.59;4396757;32;35206;-83
2022/04/12 11:28:15;;;;;;;;;;;;;;;18.23;27.17;100257.81;4396943;32;34484;-81
2022/04/12 11:30:52;;;;;;;;;;;;;;;19.14;23.66;100255.69;4399295;32;32852;-82
2022/04/12 11:33:22;;;;;;;;;;;;;;;19.78;23.07;100252.97;4400370;32;34694;-82
2022/04/12 11:35:50;;;;;;;;;;;;;;;20.12;22.21;100253.16;4386169;32;33572;-83
2022/04/12 11:38:18;;;;;;;;;;;;;;;21.91;22.95;100249.19;4399382;32;34919;-83
2022/04/12 11:40:46;;;;;;;;;;;;;;;23.19;22.07;100241.22;4399395;32;33658;-82
2022/04/12 11:43:25;;;;;;;;;;;;;;;23.97;19.12;100235.38;4399297;32;33823;-84
2022/04/12 11:45:56;;;;;;;;;;;;;;;22.87;19.12;100238.56;4386568;32;35648;-81
2022/04/12 11:48:28;;;;;;;;;;;;;;;21.91;20.11;100249.19;4386719;32;34791;-81
2022/04/12 11:50:56;;;;;;;;;;;;;;;22.41;19.80;100246.78;4400679;32;33528;-85
2022/04/12 11:53:25;;;;;;;;;;;;;;;22.78;20.27;100245.25;4399151;32;34018;-82
2022/04/12 11:56:00;;;;;;;;;;;;;;;22.20;20.75;100255.06;4385918;32;34138;-82
2022/04/12 11:58:31;;;;;;;;;;;;;;;22.70;19.58;100238.19;4398745;32;34733;-83
2022/04/12 12:00:59;;;;;;;;;;;;;;;21.74;20.35;100247.91;4374528;32;33111;-82
2022/04/12 12:03:37;;;;;;;;;;;;;;;21.59;20.81;100245.34;4376620;32;34153;-82
2022/04/12 12:06:06;;;;;;;;;;;;;;;21.47;19.82;100233.44;4398825;32;36013;-84
2022/04/12 12:08:34;;;;;;;;;;;;;;;21.42;20.62;100241.31;4386498;32;32289;-82
2022/04/12 12:11:09;;;;;;;;;;;;;;;21.44;20.95;100239.22;4386615;32;33527;-81
2022/04/12 12:13:37;;;;;;;;;;;;;;;20.56;21.93;100242.88;4386003;32;32894;-84
2022/04/12 12:16:13;;;;;;;;;;;;;;;20.68;20.96;100230.50;4400615;32;36779;-89
2022/04/12 12:18:40;;;;;;;;;;;;;;;20.89;21.73;100241.28;4386307;32;35337;-84
2022/04/12 12:21:16;;;;;;;;;;;;;;;21.73;22.00;100236.22;4399120;32;32883;-82
2022/04/12 12:23:43;;;;;;;;;;;;;;;22.08;20.18;100231.50;4400768;32;34334;-84
2022/04/12 12:26:26;;;;;;;;;;;;;;;22.37;20.16;100231.09;4398598;32;36100;-82
2022/04/12 12:28:55;;;;;;;;;;;;;;;22.29;19.42;100223.97;4398715;32;35005;-89
2022/04/12 12:31:24;;;;;;;;;;;;;;;22.77;20.98;100227.31;4386216;32;31791;-90
2022/04/12 12:33:52;;;;;;;;;;;;;;;22.85;23.16;100224.38;4386163;32;33131;-83
2022/04/12 12:36:20;;;;;;;;;;;;;;;23.18;21.82;100219.69;4398793;32;35268;-82
2022/04/12 12:38:48;;;;;;;;;;;;;;;23.22;21.35;100216.34;4398984;32;33473;-82
2022/04/12 12:41:25;;;;;;;;;;;;;;;23.91;21.09;100215.34;4385789;32;32313;-89
2022/04/12 12:43:58;;;;;;;;;;;;;;;23.01;18.94;100207.66;4399948;32;34919;-83
2022/04/12 12:46:26;;;;;;;;;;;;;;;22.34;19.79;100209.81;4385950;32;35371;-82
2022/04/12 12:49:11;;;;;;;;;;;;;;;22.86;20.19;100201.62;4386049;32;33428;-87
2022/04/12 12:51:38;;;;;;;;;;;;;;;22.87;19.26;100190.56;4398934;32;34458;-84
2022/04/12 12:54:08;;;;;;;;;;;;;;;22.03;20.06;100201.47;4397941;32;33273;-83
2022/04/12 12:56:36;;;;;;;;;;;;;;;21.60;20.04;100206.37;4386253;32;34713;-85
2022/04/12 12:59:17;;;;;;;;;;;;;;;21.03;21.67;100195.16;4386103;32;33444;-89
2022/04/12 13:01:52;;;;;;;;;;;;;;;20.41;21.62;100207.03;4373565;32;32362;-84
2022/04/12 13:04:27;;;;;;;;;;;;;;;20.28;23.97;100200.69;4400245;32;34590;-84
2022/04/12 13:07:01;;;;;;;;;;;;;;;21.23;22.27;100197.94;4385834;32;34721;-81
2022/04/12 13:09:29;;;;;;;;;;;;;;;21.43;20.86;100196.16;4398490;32;33686;-82
2022/04/12 13:11:59;;;;;;;;;;;;;;;21.84;20.65;100195.03;4398515;32;34577;-83
2022/04/12 13:14:27;;;;;;;;;;;;;;;21.84;21.10;100195.03;4386460;32;34720;-83
2022/04/12 13:16:55;;;;;;;;;;;;;;;21.49;20.31;100198.00;4397937;32;34532;-83
2022/04/12 13:19:27;;;;;;;;;;;;;;;21.51;20.99;100191.38;4398102;32;35030;-82